sensor_id;sensor_type;location;lat;lon;timestamp;P1;durP1;ratioP1;P2;durP2;ratioP2
52112;SDS011;38109;49.488;31.988;2022-10-16T04:19:14;9.95;;;5.25;;
52112;SDS011;38109;49.488;31.988;2022-10-16T04:21:40;9.07;;;4.60;;
52112;SDS011;38109;49.488;31.988;2022-10-16T04:24:06;8.25;;;4.97;;
52112;SDS011;38109;49.488;31.988;2022-10-16T04:26:31;9.63;;;5.30;;
52112;SDS011;38109;49.488;31.988;2022-10-16T04:28:57;7.68;;;4.43;;
52112;SDS011;38109;49.488;31.988;2022-10-16T04:31:23;9.10;;;4.78;;
52112;SDS011;38109;49.488;31.988;2022-10-16T04:33:48;11.60;;;5.97;;
52112;SDS011;38109;49.488;31.988;2022-10-16T04:36:14;12.77;;;6.22;;
52112;SDS011;38109;49.488;31.988;2022-10-16T04:38:40;10.68;;;6.30;;
52112;SDS011;38109;49.488;31.988;2022-10-16T04:41:06;9.43;;;5.68;;
52112;SDS011;38109;49.488;31.988;2022-10-16T04:43:32;9.15;;;5.18;;
52112;SDS011;38109;49.488;31.988;2022-10-16T04:45:58;9.27;;;5.43;;
52112;SDS011;38109;49.488;31.988;2022-10-16T04:48:24;9.20;;;4.93;;
52112;SDS011;38109;49.488;31.988;2022-10-16T04:50:50;11.45;;;5.88;;
52112;SDS011;38109;49.488;31.988;2022-10-16T04:53:16;10.45;;;5.90;;
52112;SDS011;38109;49.488;31.988;2022-10-16T04:55:42;10.68;;;5.60;;
52112;SDS011;38109;49.488;31.988;2022-10-16T04:58:08;10.82;;;6.15;;
52112;SDS011;38109;49.488;31.988;2022-10-16T05:00:34;12.68;;;6.93;;
52112;SDS011;38109;49.488;31.988;2022-10-16T05:03:00;8.35;;;5.40;;
52112;SDS011;38109;49.488;31.988;2022-10-16T05:05:26;12.55;;;6.78;;
52112;SDS011;38109;49.488;31.988;2022-10-16T05:07:52;11.40;;;6.60;;
52112;SDS011;38109;49.488;31.988;2022-10-16T05:10:18;13.55;;;8.48;;
52112;SDS011;38109;49.488;31.988;2022-10-16T05:12:44;11.02;;;7.03;;
52112;SDS011;38109;49.488;31.988;2022-10-16T05:15:11;9.80;;;6.53;;
52112;SDS011;38109;49.488;31.988;2022-10-16T05:17:37;12.43;;;7.05;;
52112;SDS011;38109;49.488;31.988;2022-10-16T05:20:03;10.50;;;6.57;;
52112;SDS011;38109;49.488;31.988;2022-10-16T05:22:29;11.98;;;6.65;;
52112;SDS011;38109;49.488;31.988;2022-10-16T05:24:55;11.73;;;6.97;;
52112;SDS011;38109;49.488;31.988;2022-10-16T05:27:20;13.80;;;7.13;;
52112;SDS011;38109;49.488;31.988;2022-10-16T05:29:46;11.02;;;6.50;;
52112;SDS011;38109;49.488;31.988;2022-10-16T05:32:17;11.02;;;6.13;;
52112;SDS011;38109;49.488;31.988;2022-10-16T05:34:43;10.63;;;6.20;;
52112;SDS011;38109;49.488;31.988;2022-10-16T05:37:09;8.85;;;5.93;;
52112;SDS011;38109;49.488;31.988;2022-10-16T05:39:36;11.02;;;6.65;;
52112;SDS011;38109;49.488;31.988;2022-10-16T05:42:03;9.95;;;5.85;;
52112;SDS011;38109;49.488;31.988;2022-10-16T05:44:29;8.13;;;4.80;;
52112;SDS011;38109;49.488;31.988;2022-10-16T05:46:55;9.45;;;5.30;;
52112;SDS011;38109;49.488;31.988;2022-10-16T05:49:20;6.78;;;3.95;;
52112;SDS011;38109;49.488;31.988;2022-10-16T05:51:46;6.57;;;4.00;;
52112;SDS011;38109;49.488;31.988;2022-10-16T05:54:11;7.28;;;4.25;;
52112;SDS011;38109;49.488;31.988;2022-10-16T05:56:37;7.00;;;4.25;;
52112;SDS011;38109;49.488;31.988;2022-10-16T05:59:03;7.57;;;4.05;;
52112;SDS011;38109;49.488;31.988;2022-10-16T06:01:29;7.78;;;4.80;;
52112;SDS011;38109;49.488;31.988;2022-10-16T06:03:56;7.20;;;3.97;;
52112;SDS011;38109;49.488;31.988;2022-10-16T06:06:23;5.72;;;3.65;;
52112;SDS011;38109;49.488;31.988;2022-10-16T06:08:51;6.95;;;3.80;;
52112;SDS011;38109;49.488;31.988;2022-10-16T06:11:24;5.20;;;3.17;;
52112;SDS011;38109;49.488;31.988;2022-10-16T06:13:52;5.32;;;3.13;;
52112;SDS011;38109;49.488;31.988;2022-10-16T06:16:19;4.07;;;2.50;;
52112;SDS011;38109;49.488;31.988;2022-10-16T06:18:45;7.85;;;3.85;;
52112;SDS011;38109;49.488;31.988;2022-10-16T06:21:13;5.88;;;3.08;;
52112;SDS011;38109;49.488;31.988;2022-10-16T06:23:41;4.80;;;3.13;;
52112;SDS011;38109;49.488;31.988;2022-10-16T06:26:11;5.25;;;3.08;;
52112;SDS011;38109;49.488;31.988;2022-10-16T06:28:39;5.43;;;3.58;;
52112;SDS011;38109;49.488;31.988;2022-10-16T06:31:05;9.52;;;4.43;;
52112;SDS011;38109;49.488;31.988;2022-10-16T06:33:32;5.63;;;3.58;;
52112;SDS011;38109;49.488;31.988;2022-10-16T06:36:02;6.22;;;3.75;;
52112;SDS011;38109;49.488;31.988;2022-10-16T06:38:29;6.35;;;3.53;;
52112;SDS011;38109;49.488;31.988;2022-10-16T06:40:55;4.78;;;3.00;;
52112;SDS011;38109;49.488;31.988;2022-10-16T06:43:21;4.72;;;3.10;;
52112;SDS011;38109;49.488;31.988;2022-10-16T06:45:56;5.85;;;3.33;;
52112;SDS011;38109;49.488;31.988;2022-10-16T06:48:23;6.20;;;3.75;;
52112;SDS011;38109;49.488;31.988;2022-10-16T06:51:02;7.55;;;3.63;;
52112;SDS011;38109;49.488;31.988;2022-10-16T06:53:34;4.00;;;3.15;;
52112;SDS011;38109;49.488;31.988;2022-10-16T06:58:39;6.80;;;3.45;;
52112;SDS011;38109;49.488;31.988;2022-10-16T07:01:06;5.93;;;3.63;;
52112;SDS011;38109;49.488;31.988;2022-10-16T07:03:32;5.43;;;3.30;;
52112;SDS011;38109;49.488;31.988;2022-10-16T07:06:01;6.35;;;3.15;;
52112;SDS011;38109;49.488;31.988;2022-10-16T07:08:30;4.70;;;3.28;;
52112;SDS011;38109;49.488;31.988;2022-10-16T07:10:58;5.45;;;3.70;;
52112;SDS011;38109;49.488;31.988;2022-10-16T07:13:25;5.75;;;3.38;;
52112;SDS011;38109;49.488;31.988;2022-10-16T07:15:51;6.60;;;3.50;;
52112;SDS011;38109;49.488;31.988;2022-10-16T07:18:17;6.32;;;3.67;;
52112;SDS011;38109;49.488;31.988;2022-10-16T07:20:43;5.25;;;3.13;;
52112;SDS011;38109;49.488;31.988;2022-10-16T07:23:09;4.88;;;2.83;;
52112;SDS011;38109;49.488;31.988;2022-10-16T07:25:34;5.80;;;3.38;;
52112;SDS011;38109;49.488;31.988;2022-10-16T07:28:00;6.10;;;3.75;;
52112;SDS011;38109;49.488;31.988;2022-10-16T07:30:26;3.88;;;2.60;;
52112;SDS011;38109;49.488;31.988;2022-10-16T07:32:51;7.28;;;3.80;;
52112;SDS011;38109;49.488;31.988;2022-10-16T07:35:17;6.10;;;3.60;;
52112;SDS011;38109;49.488;31.988;2022-10-16T07:37:46;5.68;;;3.42;;
52112;SDS011;38109;49.488;31.988;2022-10-16T07:40:12;5.78;;;3.65;;
52112;SDS011;38109;49.488;31.988;2022-10-16T07:42:38;7.07;;;3.92;;
52112;SDS011;38109;49.488;31.988;2022-10-16T07:45:03;6.20;;;3.50;;
52112;SDS011;38109;49.488;31.988;2022-10-16T07:47:30;4.38;;;3.00;;
52112;SDS011;38109;49.488;31.988;2022-10-16T07:49:55;7.03;;;4.18;;
52112;SDS011;38109;49.488;31.988;2022-10-16T07:52:21;6.63;;;3.65;;
52112;SDS011;38109;49.488;31.988;2022-10-16T07:54:46;6.97;;;3.75;;
52112;SDS011;38109;49.488;31.988;2022-10-16T07:57:12;6.80;;;3.70;;
52112;SDS011;38109;49.488;31.988;2022-10-16T07:59:44;5.50;;;3.45;;
52112;SDS011;38109;49.488;31.988;2022-10-16T08:02:10;6.45;;;3.65;;
52112;SDS011;38109;49.488;31.988;2022-10-16T08:04:36;5.18;;;3.30;;
52112;SDS011;38109;49.488;31.988;2022-10-16T08:07:02;6.38;;;4.00;;
52112;SDS011;38109;49.488;31.988;2022-10-16T08:09:27;6.45;;;3.55;;
52112;SDS011;38109;49.488;31.988;2022-10-16T08:11:53;6.88;;;4.20;;
52112;SDS011;38109;49.488;31.988;2022-10-16T08:14:19;6.32;;;3.85;;
52112;SDS011;38109;49.488;31.988;2022-10-16T08:16:44;5.63;;;3.55;;
52112;SDS011;38109;49.488;31.988;2022-10-16T08:19:10;5.22;;;3.38;;
52112;SDS011;38109;49.488;31.988;2022-10-16T08:21:36;5.72;;;3.70;;
52112;SDS011;38109;49.488;31.988;2022-10-16T08:24:01;8.93;;;4.55;;
52112;SDS011;38109;49.488;31.988;2022-10-16T08:26:27;5.75;;;3.38;;
52112;SDS011;38109;49.488;31.988;2022-10-16T08:28:53;5.63;;;3.47;;
52112;SDS011;38109;49.488;31.988;2022-10-16T08:31:20;6.10;;;3.60;;
52112;SDS011;38109;49.488;31.988;2022-10-16T08:33:46;5.95;;;3.40;;
52112;SDS011;38109;49.488;31.988;2022-10-16T08:36:13;4.93;;;2.97;;
52112;SDS011;38109;49.488;31.988;2022-10-16T08:38:41;4.93;;;3.35;;
52112;SDS011;38109;49.488;31.988;2022-10-16T08:49:16;5.35;;;3.33;;
52112;SDS011;38109;49.488;31.988;2022-10-16T08:51:43;4.28;;;2.60;;
52112;SDS011;38109;49.488;31.988;2022-10-16T08:56:57;5.28;;;3.20;;
52112;SDS011;38109;49.488;31.988;2022-10-16T08:59:32;3.70;;;2.58;;
52112;SDS011;38109;49.488;31.988;2022-10-16T09:01:58;3.47;;;2.55;;
52112;SDS011;38109;49.488;31.988;2022-10-16T09:09:43;4.13;;;2.63;;
52112;SDS011;38109;49.488;31.988;2022-10-16T09:20:20;5.13;;;3.50;;
52112;SDS011;38109;49.488;31.988;2022-10-16T09:22:50;5.15;;;2.97;;
52112;SDS011;38109;49.488;31.988;2022-10-16T09:25:22;5.47;;;3.30;;
52112;SDS011;38109;49.488;31.988;2022-10-16T09:27:48;4.68;;;2.67;;
52112;SDS011;38109;49.488;31.988;2022-10-16T09:30:18;4.38;;;2.63;;
52112;SDS011;38109;49.488;31.988;2022-10-16T09:32:47;4.50;;;3.03;;
52112;SDS011;38109;49.488;31.988;2022-10-16T09:35:16;4.07;;;2.90;;
52112;SDS011;38109;49.488;31.988;2022-10-16T09:37:46;5.65;;;2.75;;
52112;SDS011;38109;49.488;31.988;2022-10-16T09:48:56;5.63;;;2.50;;
52112;SDS011;38109;49.488;31.988;2022-10-16T09:51:26;3.58;;;2.53;;
52112;SDS011;38109;49.488;31.988;2022-10-16T09:53:59;4.22;;;2.50;;
52112;SDS011;38109;49.488;31.988;2022-10-16T09:56:35;3.33;;;2.25;;
52112;SDS011;38109;49.488;31.988;2022-10-16T09:59:08;4.35;;;2.53;;
52112;SDS011;38109;49.488;31.988;2022-10-16T10:01:39;3.67;;;2.50;;
52112;SDS011;38109;49.488;31.988;2022-10-16T10:04:06;3.22;;;2.00;;
52112;SDS011;38109;49.488;31.988;2022-10-16T10:06:33;3.63;;;2.22;;
52112;SDS011;38109;49.488;31.988;2022-10-16T10:12:14;4.70;;;2.47;;
52112;SDS011;38109;49.488;31.988;2022-10-16T10:14:52;3.63;;;1.88;;
52112;SDS011;38109;49.488;31.988;2022-10-16T10:17:21;3.25;;;1.75;;
52112;SDS011;38109;49.488;31.988;2022-10-16T10:20:15;2.80;;;1.80;;
52112;SDS011;38109;49.488;31.988;2022-10-16T10:22:49;2.30;;;1.50;;
52112;SDS011;38109;49.488;31.988;2022-10-16T10:25:16;2.95;;;1.50;;
52112;SDS011;38109;49.488;31.988;2022-10-16T10:27:55;3.22;;;1.80;;
52112;SDS011;38109;49.488;31.988;2022-10-16T10:33:42;2.38;;;1.20;;
52112;SDS011;38109;49.488;31.988;2022-10-16T10:36:46;1.27;;;1.13;;
52112;SDS011;38109;49.488;31.988;2022-10-16T10:50:17;1.50;;;1.10;;
52112;SDS011;38109;49.488;31.988;2022-10-16T11:01:32;4.82;;;1.90;;
52112;SDS011;38109;49.488;31.988;2022-10-16T11:09:15;2.75;;;1.63;;
52112;SDS011;38109;49.488;31.988;2022-10-16T11:11:51;1.70;;;1.30;;
52112;SDS011;38109;49.488;31.988;2022-10-16T11:14:28;2.65;;;1.50;;
52112;SDS011;38109;49.488;31.988;2022-10-16T11:22:27;2.05;;;1.20;;
52112;SDS011;38109;49.488;31.988;2022-10-16T11:27:44;2.25;;;1.60;;
52112;SDS011;38109;49.488;31.988;2022-10-16T11:30:19;3.92;;;1.80;;
52112;SDS011;38109;49.488;31.988;2022-10-16T11:47:04;2.03;;;1.23;;
52112;SDS011;38109;49.488;31.988;2022-10-16T11:49:37;2.00;;;1.45;;
52112;SDS011;38109;49.488;31.988;2022-10-16T11:55:05;2.28;;;1.40;;
52112;SDS011;38109;49.488;31.988;2022-10-16T11:57:46;2.10;;;1.60;;
52112;SDS011;38109;49.488;31.988;2022-10-16T12:02:56;1.98;;;1.27;;
52112;SDS011;38109;49.488;31.988;2022-10-16T12:08:23;1.48;;;1.20;;
52112;SDS011;38109;49.488;31.988;2022-10-16T12:10:49;4.30;;;1.50;;
52112;SDS011;38109;49.488;31.988;2022-10-16T12:18:37;2.13;;;1.40;;
52112;SDS011;38109;49.488;31.988;2022-10-16T12:21:07;1.55;;;1.45;;
52112;SDS011;38109;49.488;31.988;2022-10-16T12:23:37;2.33;;;1.60;;
52112;SDS011;38109;49.488;31.988;2022-10-16T12:26:11;2.60;;;1.63;;
52112;SDS011;38109;49.488;31.988;2022-10-16T12:28:37;1.67;;;1.33;;
52112;SDS011;38109;49.488;31.988;2022-10-16T12:31:07;1.95;;;1.40;;
52112;SDS011;38109;49.488;31.988;2022-10-16T12:33:35;1.90;;;1.40;;
52112;SDS011;38109;49.488;31.988;2022-10-16T12:36:07;2.30;;;1.30;;
52112;SDS011;38109;49.488;31.988;2022-10-16T12:38:55;2.10;;;1.30;;
52112;SDS011;38109;49.488;31.988;2022-10-16T12:41:25;3.22;;;1.48;;
52112;SDS011;38109;49.488;31.988;2022-10-16T12:43:52;1.98;;;1.20;;
52112;SDS011;38109;49.488;31.988;2022-10-16T12:48:44;1.48;;;1.13;;
52112;SDS011;38109;49.488;31.988;2022-10-16T12:51:22;2.80;;;1.40;;
52112;SDS011;38109;49.488;31.988;2022-10-16T12:59:41;1.83;;;1.40;;
52112;SDS011;38109;49.488;31.988;2022-10-16T13:05:49;3.45;;;1.23;;
52112;SDS011;38109;49.488;31.988;2022-10-16T13:11:22;2.03;;;1.40;;
52112;SDS011;38109;49.488;31.988;2022-10-16T13:22:39;2.45;;;1.27;;
52112;SDS011;38109;49.488;31.988;2022-10-16T13:25:28;1.83;;;1.30;;
52112;SDS011;38109;49.488;31.988;2022-10-16T13:28:15;2.72;;;1.45;;
52112;SDS011;38109;49.488;31.988;2022-10-16T13:30:51;2.03;;;1.40;;
52112;SDS011;38109;49.488;31.988;2022-10-16T13:35:56;2.63;;;1.42;;
52112;SDS011;38109;49.488;31.988;2022-10-16T13:38:24;1.70;;;1.10;;
52112;SDS011;38109;49.488;31.988;2022-10-16T13:40:59;2.22;;;1.45;;
52112;SDS011;38109;49.488;31.988;2022-10-16T13:46:06;1.55;;;1.20;;
52112;SDS011;38109;49.488;31.988;2022-10-16T13:48:39;1.60;;;1.25;;
52112;SDS011;38109;49.488;31.988;2022-10-16T13:51:15;1.58;;;1.20;;
52112;SDS011;38109;49.488;31.988;2022-10-16T13:53:43;1.90;;;1.00;;
52112;SDS011;38109;49.488;31.988;2022-10-16T13:56:14;1.40;;;1.20;;
52112;SDS011;38109;49.488;31.988;2022-10-16T13:58:43;1.58;;;1.27;;
52112;SDS011;38109;49.488;31.988;2022-10-16T14:01:16;2.38;;;1.70;;
52112;SDS011;38109;49.488;31.988;2022-10-16T14:03:49;2.25;;;1.40;;
52112;SDS011;38109;49.488;31.988;2022-10-16T14:06:23;2.88;;;1.40;;
52112;SDS011;38109;49.488;31.988;2022-10-16T14:09:09;9.52;;;1.80;;
52112;SDS011;38109;49.488;31.988;2022-10-16T14:11:53;2.47;;;1.60;;
52112;SDS011;38109;49.488;31.988;2022-10-16T14:14:25;5.57;;;1.98;;
52112;SDS011;38109;49.488;31.988;2022-10-16T14:16:57;5.53;;;2.15;;
52112;SDS011;38109;49.488;31.988;2022-10-16T14:19:26;3.63;;;1.38;;
52112;SDS011;38109;49.488;31.988;2022-10-16T14:21:53;5.43;;;1.90;;
52112;SDS011;38109;49.488;31.988;2022-10-16T14:24:31;3.97;;;1.77;;
52112;SDS011;38109;49.488;31.988;2022-10-16T14:26:59;3.70;;;1.38;;
52112;SDS011;38109;49.488;31.988;2022-10-16T14:29:27;4.70;;;1.92;;
52112;SDS011;38109;49.488;31.988;2022-10-16T14:32:00;3.25;;;1.80;;
52112;SDS011;38109;49.488;31.988;2022-10-16T14:36:54;3.63;;;2.28;;
52112;SDS011;38109;49.488;31.988;2022-10-16T14:39:21;5.85;;;3.05;;
52112;SDS011;38109;49.488;31.988;2022-10-16T14:41:48;11.05;;;4.88;;
52112;SDS011;38109;49.488;31.988;2022-10-16T14:44:17;14.93;;;7.20;;
52112;SDS011;38109;49.488;31.988;2022-10-16T14:46:44;19.75;;;8.73;;
52112;SDS011;38109;49.488;31.988;2022-10-16T14:51:37;17.98;;;8.25;;
52112;SDS011;38109;49.488;31.988;2022-10-16T14:54:07;13.25;;;6.75;;
52112;SDS011;38109;49.488;31.988;2022-10-16T14:56:40;11.85;;;6.97;;
52112;SDS011;38109;49.488;31.988;2022-10-16T14:59:23;24.67;;;10.02;;
52112;SDS011;38109;49.488;31.988;2022-10-16T15:01:52;22.20;;;9.73;;
52112;SDS011;38109;49.488;31.988;2022-10-16T15:04:19;19.63;;;10.30;;
52112;SDS011;38109;49.488;31.988;2022-10-16T15:06:45;26.33;;;12.50;;
52112;SDS011;38109;49.488;31.988;2022-10-16T15:09:12;29.17;;;13.00;;
52112;SDS011;38109;49.488;31.988;2022-10-16T15:11:37;26.85;;;12.70;;
52112;SDS011;38109;49.488;31.988;2022-10-16T15:14:04;23.00;;;12.13;;
52112;SDS011;38109;49.488;31.988;2022-10-16T15:16:29;41.65;;;18.55;;
52112;SDS011;38109;49.488;31.988;2022-10-16T15:18:56;59.22;;;25.02;;
52112;SDS011;38109;49.488;31.988;2022-10-16T15:21:24;49.15;;;19.95;;
52112;SDS011;38109;49.488;31.988;2022-10-16T15:23:55;44.35;;;18.73;;
52112;SDS011;38109;49.488;31.988;2022-10-16T15:26:23;31.02;;;15.63;;
52112;SDS011;38109;49.488;31.988;2022-10-16T15:28:52;44.88;;;20.45;;
52112;SDS011;38109;49.488;31.988;2022-10-16T15:31:18;36.88;;;16.85;;
52112;SDS011;38109;49.488;31.988;2022-10-16T15:33:46;27.02;;;13.18;;
52112;SDS011;38109;49.488;31.988;2022-10-16T15:36:28;30.77;;;14.00;;
52112;SDS011;38109;49.488;31.988;2022-10-16T15:38:55;29.25;;;14.40;;
52112;SDS011;38109;49.488;31.988;2022-10-16T15:41:21;26.90;;;13.85;;
52112;SDS011;38109;49.488;31.988;2022-10-16T15:43:48;27.90;;;12.77;;
52112;SDS011;38109;49.488;31.988;2022-10-16T15:46:15;19.33;;;9.25;;
52112;SDS011;38109;49.488;31.988;2022-10-16T15:48:47;13.90;;;7.85;;
52112;SDS011;38109;49.488;31.988;2022-10-16T15:51:13;11.13;;;6.57;;
52112;SDS011;38109;49.488;31.988;2022-10-16T15:53:39;13.15;;;6.75;;
52112;SDS011;38109;49.488;31.988;2022-10-16T15:56:05;15.55;;;7.90;;
52112;SDS011;38109;49.488;31.988;2022-10-16T15:58:32;18.88;;;9.35;;
52112;SDS011;38109;49.488;31.988;2022-10-16T16:00:58;20.10;;;10.00;;
52112;SDS011;38109;49.488;31.988;2022-10-16T16:03:28;23.90;;;12.02;;
52112;SDS011;38109;49.488;31.988;2022-10-16T16:05:55;26.50;;;12.73;;
52112;SDS011;38109;49.488;31.988;2022-10-16T16:08:21;25.63;;;12.30;;
52112;SDS011;38109;49.488;31.988;2022-10-16T16:10:57;27.17;;;12.77;;
52112;SDS011;38109;49.488;31.988;2022-10-16T16:13:23;24.67;;;12.60;;
52112;SDS011;38109;49.488;31.988;2022-10-16T16:15:49;22.73;;;10.30;;
52112;SDS011;38109;49.488;31.988;2022-10-16T16:18:19;19.52;;;9.50;;
52112;SDS011;38109;49.488;31.988;2022-10-16T16:20:45;18.45;;;9.50;;
52112;SDS011;38109;49.488;31.988;2022-10-16T16:23:10;22.65;;;10.60;;
52112;SDS011;38109;49.488;31.988;2022-10-16T16:25:36;24.20;;;12.27;;
52112;SDS011;38109;49.488;31.988;2022-10-16T16:28:02;25.42;;;10.77;;
52112;SDS011;38109;49.488;31.988;2022-10-16T16:30:27;27.73;;;11.57;;
52112;SDS011;38109;49.488;31.988;2022-10-16T16:32:53;23.08;;;10.68;;
52112;SDS011;38109;49.488;31.988;2022-10-16T16:35:20;24.42;;;11.02;;
52112;SDS011;38109;49.488;31.988;2022-10-16T16:37:46;18.92;;;9.35;;
52112;SDS011;38109;49.488;31.988;2022-10-16T16:40:13;31.63;;;14.90;;
52112;SDS011;38109;49.488;31.988;2022-10-16T16:42:38;34.90;;;16.13;;
52112;SDS011;38109;49.488;31.988;2022-10-16T16:45:06;37.75;;;19.35;;
52112;SDS011;38109;49.488;31.988;2022-10-16T16:47:32;36.45;;;17.00;;
52112;SDS011;38109;49.488;31.988;2022-10-16T16:49:58;35.03;;;15.52;;
52112;SDS011;38109;49.488;31.988;2022-10-16T16:52:24;30.20;;;15.43;;
52112;SDS011;38109;49.488;31.988;2022-10-16T16:54:50;35.35;;;18.63;;
52112;SDS011;38109;49.488;31.988;2022-10-16T16:57:19;35.53;;;17.55;;
52112;SDS011;38109;49.488;31.988;2022-10-16T16:59:45;34.70;;;17.88;;
52112;SDS011;38109;49.488;31.988;2022-10-16T17:02:10;37.22;;;17.17;;
52112;SDS011;38109;49.488;31.988;2022-10-16T17:04:36;30.92;;;16.77;;
52112;SDS011;38109;49.488;31.988;2022-10-16T17:07:02;31.02;;;16.90;;
52112;SDS011;38109;49.488;31.988;2022-10-16T17:09:28;32.63;;;15.63;;
52112;SDS011;38109;49.488;31.988;2022-10-16T17:11:53;33.50;;;16.13;;
52112;SDS011;38109;49.488;31.988;2022-10-16T17:14:19;26.33;;;13.38;;
52112;SDS011;38109;49.488;31.988;2022-10-16T17:16:45;30.75;;;13.77;;
52112;SDS011;38109;49.488;31.988;2022-10-16T17:19:16;25.42;;;12.85;;
52112;SDS011;38109;49.488;31.988;2022-10-16T17:21:43;24.90;;;13.13;;
52112;SDS011;38109;49.488;31.988;2022-10-16T17:24:09;29.77;;;14.55;;
52112;SDS011;38109;49.488;31.988;2022-10-16T17:26:35;25.55;;;12.80;;
52112;SDS011;38109;49.488;31.988;2022-10-16T17:29:02;28.05;;;11.90;;
52112;SDS011;38109;49.488;31.988;2022-10-16T17:31:30;24.90;;;12.65;;
52112;SDS011;38109;49.488;31.988;2022-10-16T17:33:58;25.80;;;14.18;;
52112;SDS011;38109;49.488;31.988;2022-10-16T17:36:25;22.20;;;11.98;;
52112;SDS011;38109;49.488;31.988;2022-10-16T17:38:57;33.15;;;14.20;;
52112;SDS011;38109;49.488;31.988;2022-10-16T17:41:29;22.35;;;11.68;;
52112;SDS011;38109;49.488;31.988;2022-10-16T17:43:56;23.00;;;11.32;;
52112;SDS011;38109;49.488;31.988;2022-10-16T17:46:23;26.92;;;12.38;;
52112;SDS011;38109;49.488;31.988;2022-10-16T17:48:50;27.60;;;14.43;;
52112;SDS011;38109;49.488;31.988;2022-10-16T17:51:19;23.05;;;11.38;;
52112;SDS011;38109;49.488;31.988;2022-10-16T17:53:53;22.55;;;11.82;;
52112;SDS011;38109;49.488;31.988;2022-10-16T17:56:22;29.98;;;13.13;;
52112;SDS011;38109;49.488;31.988;2022-10-16T17:58:49;21.40;;;10.88;;
52112;SDS011;38109;49.488;31.988;2022-10-16T18:01:37;21.38;;;11.23;;
52112;SDS011;38109;49.488;31.988;2022-10-16T18:04:08;17.25;;;9.77;;
52112;SDS011;38109;49.488;31.988;2022-10-16T18:06:37;15.05;;;9.48;;
52112;SDS011;38109;49.488;31.988;2022-10-16T18:09:04;14.15;;;6.97;;
52112;SDS011;38109;49.488;31.988;2022-10-16T18:11:32;13.93;;;7.93;;
52112;SDS011;38109;49.488;31.988;2022-10-16T18:13:58;14.38;;;7.25;;
52112;SDS011;38109;49.488;31.988;2022-10-16T18:16:25;14.30;;;6.85;;
52112;SDS011;38109;49.488;31.988;2022-10-16T18:18:53;17.42;;;9.85;;
52112;SDS011;38109;49.488;31.988;2022-10-16T18:21:21;24.02;;;12.02;;
52112;SDS011;38109;49.488;31.988;2022-10-16T18:23:47;33.38;;;17.25;;
52112;SDS011;38109;49.488;31.988;2022-10-16T18:26:13;39.47;;;19.15;;
52112;SDS011;38109;49.488;31.988;2022-10-16T18:28:39;38.55;;;18.73;;
52112;SDS011;38109;49.488;31.988;2022-10-16T18:31:12;34.47;;;16.70;;
52112;SDS011;38109;49.488;31.988;2022-10-16T18:33:40;32.08;;;14.55;;
52112;SDS011;38109;49.488;31.988;2022-10-16T18:36:14;23.35;;;11.75;;
52112;SDS011;38109;49.488;31.988;2022-10-16T18:38:41;24.48;;;10.75;;
52112;SDS011;38109;49.488;31.988;2022-10-16T18:41:08;16.20;;;8.95;;
52112;SDS011;38109;49.488;31.988;2022-10-16T18:43:34;14.80;;;9.20;;
52112;SDS011;38109;49.488;31.988;2022-10-16T18:46:11;22.30;;;10.75;;
52112;SDS011;38109;49.488;31.988;2022-10-16T18:48:41;29.63;;;13.40;;
52112;SDS011;38109;49.488;31.988;2022-10-16T18:51:30;26.08;;;11.95;;
52112;SDS011;38109;49.488;31.988;2022-10-16T18:53:59;21.10;;;10.32;;
52112;SDS011;38109;49.488;31.988;2022-10-16T18:56:27;18.20;;;9.25;;
52112;SDS011;38109;49.488;31.988;2022-10-16T18:58:54;17.65;;;8.90;;
52112;SDS011;38109;49.488;31.988;2022-10-16T19:01:23;19.75;;;10.48;;
52112;SDS011;38109;49.488;31.988;2022-10-16T19:03:58;22.75;;;10.70;;
52112;SDS011;38109;49.488;31.988;2022-10-16T19:06:27;22.88;;;11.07;;
52112;SDS011;38109;49.488;31.988;2022-10-16T19:08:54;21.33;;;10.00;;
52112;SDS011;38109;49.488;31.988;2022-10-16T19:11:21;20.13;;;9.07;;
52112;SDS011;38109;49.488;31.988;2022-10-16T19:13:48;27.17;;;12.98;;
52112;SDS011;38109;49.488;31.988;2022-10-16T19:16:15;27.70;;;11.80;;
52112;SDS011;38109;49.488;31.988;2022-10-16T19:18:42;19.35;;;9.50;;
52112;SDS011;38109;49.488;31.988;2022-10-16T19:21:09;17.92;;;8.05;;
52112;SDS011;38109;49.488;31.988;2022-10-16T19:23:36;18.75;;;10.00;;
52112;SDS011;38109;49.488;31.988;2022-10-16T19:26:03;21.15;;;10.13;;
52112;SDS011;38109;49.488;31.988;2022-10-16T19:28:31;17.35;;;8.38;;
52112;SDS011;38109;49.488;31.988;2022-10-16T19:30:59;16.10;;;8.20;;
52112;SDS011;38109;49.488;31.988;2022-10-16T19:33:26;16.25;;;8.80;;
52112;SDS011;38109;49.488;31.988;2022-10-16T19:35:52;15.98;;;9.02;;
52112;SDS011;38109;49.488;31.988;2022-10-16T19:38:18;15.68;;;8.32;;
52112;SDS011;38109;49.488;31.988;2022-10-16T19:40:44;17.25;;;9.43;;
52112;SDS011;38109;49.488;31.988;2022-10-16T19:43:10;16.15;;;8.70;;
52112;SDS011;38109;49.488;31.988;2022-10-16T19:45:35;20.25;;;9.40;;
52112;SDS011;38109;49.488;31.988;2022-10-16T19:48:01;14.70;;;8.48;;
52112;SDS011;38109;49.488;31.988;2022-10-16T19:50:27;15.88;;;7.57;;
52112;SDS011;38109;49.488;31.988;2022-10-16T19:52:53;13.45;;;7.60;;
52112;SDS011;38109;49.488;31.988;2022-10-16T19:55:20;11.38;;;7.00;;
52112;SDS011;38109;49.488;31.988;2022-10-16T19:57:45;13.15;;;7.03;;
52112;SDS011;38109;49.488;31.988;2022-10-16T20:00:11;13.13;;;6.70;;
52112;SDS011;38109;49.488;31.988;2022-10-16T20:02:38;12.27;;;7.05;;
52112;SDS011;38109;49.488;31.988;2022-10-16T20:05:03;11.13;;;6.43;;
52112;SDS011;38109;49.488;31.988;2022-10-16T20:07:29;10.32;;;6.28;;
52112;SDS011;38109;49.488;31.988;2022-10-16T20:09:55;11.13;;;6.30;;
52112;SDS011;38109;49.488;31.988;2022-10-16T20:12:21;12.32;;;7.22;;
52112;SDS011;38109;49.488;31.988;2022-10-16T20:14:46;13.13;;;7.18;;
52112;SDS011;38109;49.488;31.988;2022-10-16T20:17:12;13.25;;;7.10;;
52112;SDS011;38109;49.488;31.988;2022-10-16T20:19:38;11.43;;;6.18;;
52112;SDS011;38109;49.488;31.988;2022-10-16T20:22:03;14.52;;;7.75;;
52112;SDS011;38109;49.488;31.988;2022-10-16T20:24:29;15.82;;;8.73;;
52112;SDS011;38109;49.488;31.988;2022-10-16T20:26:55;13.43;;;7.97;;
52112;SDS011;38109;49.488;31.988;2022-10-16T20:29:22;18.50;;;8.25;;
52112;SDS011;38109;49.488;31.988;2022-10-16T20:31:48;18.98;;;8.45;;
52112;SDS011;38109;49.488;31.988;2022-10-16T20:34:14;17.23;;;9.23;;
52112;SDS011;38109;49.488;31.988;2022-10-16T20:36:40;22.67;;;10.48;;
52112;SDS011;38109;49.488;31.988;2022-10-16T20:39:09;17.80;;;9.20;;
52112;SDS011;38109;49.488;31.988;2022-10-16T20:41:37;21.30;;;11.82;;
52112;SDS011;38109;49.488;31.988;2022-10-16T20:44:03;30.00;;;14.45;;
52112;SDS011;38109;49.488;31.988;2022-10-16T20:46:29;28.40;;;14.30;;
52112;SDS011;38109;49.488;31.988;2022-10-16T20:48:55;30.90;;;15.43;;
52112;SDS011;38109;49.488;31.988;2022-10-16T20:51:23;28.00;;;14.98;;
52112;SDS011;38109;49.488;31.988;2022-10-16T20:53:52;33.25;;;17.17;;
52112;SDS011;38109;49.488;31.988;2022-10-16T20:56:29;30.85;;;16.65;;
52112;SDS011;38109;49.488;31.988;2022-10-16T20:58:57;32.30;;;16.58;;
52112;SDS011;38109;49.488;31.988;2022-10-16T21:01:24;27.25;;;14.57;;
52112;SDS011;38109;49.488;31.988;2022-10-16T21:03:53;24.90;;;13.10;;
52112;SDS011;38109;49.488;31.988;2022-10-16T21:06:20;23.50;;;12.43;;